createdAt,value
2022-10-04T00:00:34.775Z,10.61
2022-10-04T00:01:34.772Z,10.61
2022-10-04T00:02:34.772Z,10.59
2022-10-04T00:03:34.735Z,10.58
2022-10-04T00:04:34.704Z,10.59
2022-10-04T00:05:34.733Z,10.57
2022-10-04T00:06:34.664Z,10.57
2022-10-04T00:07:34.673Z,10.57
2022-10-04T00:08:34.659Z,10.55
2022-10-04T00:09:34.654Z,10.57
2022-10-04T00:10:34.673Z,10.55
2022-10-04T00:11:34.653Z,10.55
2022-10-04T00:12:34.695Z,10.57
2022-10-04T00:13:34.622Z,10.55
2022-10-04T00:14:34.608Z,10.55
2022-10-04T00:15:34.592Z,10.55
2022-10-04T00:16:34.687Z,10.55
2022-10-04T00:17:34.604Z,10.51
2022-10-04T00:18:34.570Z,10.51
2022-10-04T00:19:34.573Z,10.49
2022-10-04T00:20:34.550Z,10.49
2022-10-04T00:21:34.534Z,10.49
2022-10-04T00:22:34.511Z,10.48
2022-10-04T00:23:34.543Z,10.46
2022-10-04T00:24:34.510Z,10.48
2022-10-04T00:25:34.482Z,10.46
2022-10-04T00:26:34.492Z,10.48
2022-10-04T00:27:34.462Z,10.48
2022-10-04T00:28:34.506Z,10.46
2022-10-04T00:29:34.452Z,10.46
2022-10-04T00:30:34.445Z,10.46
2022-10-04T00:31:34.536Z,10.48
2022-10-04T00:32:34.441Z,10.51
2022-10-04T00:33:35.181Z,10.51
2022-10-04T00:34:34.392Z,10.53
2022-10-04T00:35:34.377Z,10.53
2022-10-04T00:36:34.361Z,10.53
2022-10-04T00:37:34.372Z,10.53
2022-10-04T00:38:34.331Z,10.51
2022-10-04T00:39:34.321Z,10.51
2022-10-04T00:40:34.981Z,10.51
2022-10-04T00:41:34.303Z,10.49
2022-10-04T00:42:34.292Z,10.51
2022-10-04T00:43:34.303Z,10.49
2022-10-04T00:44:34.268Z,10.49
2022-10-04T00:45:34.262Z,10.51
2022-10-04T00:46:34.279Z,10.51
2022-10-04T00:47:34.254Z,10.51
2022-10-04T00:48:34.240Z,10.53
2022-10-04T00:49:34.221Z,10.49
2022-10-04T00:50:34.212Z,10.51
2022-10-04T00:51:34.201Z,10.51
2022-10-04T00:52:34.180Z,10.51
2022-10-04T00:53:34.194Z,10.51
2022-10-04T00:54:34.711Z,10.51
2022-10-04T00:55:34.151Z,10.53
2022-10-04T00:56:34.130Z,10.55
2022-10-04T00:57:34.134Z,10.55
2022-10-04T00:58:34.120Z,10.57
2022-10-04T00:59:34.132Z,10.57
2022-10-04T01:00:34.099Z,10.57
2022-10-04T01:01:34.150Z,10.58
2022-10-04T01:02:34.140Z,10.59
2022-10-04T01:03:34.073Z,10.59
2022-10-04T01:04:34.059Z,10.59
2022-10-04T01:05:34.090Z,10.59
2022-10-04T01:06:34.079Z,10.61
2022-10-04T01:07:34.078Z,10.59
2022-10-04T01:08:34.009Z,10.61
2022-10-04T01:09:34.033Z,10.61
2022-10-04T01:10:33.991Z,10.61
2022-10-04T01:11:33.998Z,10.62
2022-10-04T01:12:34.007Z,10.62
2022-10-04T01:13:34.005Z,10.62
2022-10-04T01:14:34.008Z,10.64
2022-10-04T01:15:33.993Z,10.61
2022-10-04T01:16:33.944Z,10.62
2022-10-04T01:17:33.929Z,10.59
2022-10-04T01:18:33.923Z,10.61
2022-10-04T01:19:33.937Z,10.61
2022-10-04T01:20:33.936Z,10.62
2022-10-04T01:21:33.928Z,10.62
2022-10-04T01:22:33.927Z,10.61
2022-10-04T01:23:33.928Z,10.62
2022-10-04T01:24:33.857Z,10.61
2022-10-04T01:25:33.838Z,10.61
2022-10-04T01:26:33.848Z,10.61
2022-10-04T01:27:33.827Z,10.61
2022-10-04T01:28:33.835Z,10.62
2022-10-04T01:29:33.799Z,10.62
2022-10-04T01:30:34.578Z,10.62
2022-10-04T01:31:33.813Z,10.62
2022-10-04T01:32:33.757Z,10.62
2022-10-04T01:33:33.747Z,10.64
2022-10-04T01:34:33.737Z,10.64
2022-10-04T01:35:33.728Z,10.62
2022-10-04T01:36:33.707Z,10.64
2022-10-04T01:37:33.734Z,10.62
2022-10-04T01:38:33.719Z,10.65
2022-10-04T01:39:33.685Z,10.64
2022-10-04T01:40:33.708Z,10.65
2022-10-04T01:41:33.666Z,10.64
2022-10-04T01:42:33.646Z,10.64
2022-10-04T01:43:33.647Z,10.65
2022-10-04T01:44:33.646Z,10.67
2022-10-04T01:45:33.633Z,10.64
2022-10-04T01:46:33.648Z,10.64
2022-10-04T01:47:33.596Z,10.65
2022-10-04T01:48:33.866Z,10.65
2022-10-04T01:49:33.577Z,10.65
2022-10-04T01:50:33.576Z,10.64
2022-10-04T01:51:33.557Z,10.65
2022-10-04T01:52:33.558Z,10.67
2022-10-04T01:53:33.566Z,10.62
2022-10-04T01:54:33.526Z,10.64
2022-10-04T01:55:33.530Z,10.62
2022-10-04T01:56:33.505Z,10.65
2022-10-04T01:57:33.496Z,10.64
2022-10-04T01:58:33.506Z,10.62
2022-10-04T01:59:33.485Z,10.62
2022-10-04T02:00:33.483Z,10.62
2022-10-04T02:01:33.496Z,10.61
2022-10-04T02:02:33.466Z,10.62
2022-10-04T02:03:33.456Z,10.64
2022-10-04T02:04:33.432Z,10.64
2022-10-04T02:05:33.417Z,10.62
2022-10-04T02:06:33.415Z,10.65
2022-10-04T02:07:33.386Z,10.64
2022-10-04T02:08:33.373Z,10.65
2022-10-04T02:09:33.427Z,10.65
2022-10-04T02:10:33.365Z,10.64
2022-10-04T02:11:33.365Z,10.64
2022-10-04T02:12:33.335Z,10.64
2022-10-04T02:13:33.667Z,10.64
2022-10-04T02:14:33.308Z,10.65
2022-10-04T02:15:33.304Z,10.65
2022-10-04T02:16:33.323Z,10.65
2022-10-04T02:17:33.325Z,10.65
2022-10-04T02:18:33.293Z,10.65
2022-10-04T02:19:33.274Z,10.67
2022-10-04T02:20:33.288Z,10.67
2022-10-04T02:21:33.291Z,10.65
2022-10-04T02:22:33.264Z,10.68
2022-10-04T02:23:33.272Z,10.68
2022-10-04T02:24:33.234Z,10.69
2022-10-04T02:25:33.213Z,10.68
2022-10-04T02:26:33.185Z,10.68
2022-10-04T02:27:33.204Z,10.65
2022-10-04T02:28:33.240Z,10.67
2022-10-04T02:29:33.220Z,10.67
2022-10-04T02:30:33.153Z,10.67
2022-10-04T02:31:33.338Z,10.68
2022-10-04T02:32:33.166Z,10.68
2022-10-04T02:33:33.104Z,10.67
2022-10-04T02:34:33.164Z,10.68
2022-10-04T02:35:33.112Z,10.67
2022-10-04T02:36:33.135Z,10.67
2022-10-04T02:37:33.082Z,10.67
2022-10-04T02:38:33.052Z,10.67
2022-10-04T02:39:33.055Z,10.68
2022-10-04T02:40:33.055Z,10.68
2022-10-04T02:41:33.073Z,10.67
2022-10-04T02:42:33.021Z,10.67
2022-10-04T02:43:33.002Z,10.67
2022-10-04T02:44:33.025Z,10.67
2022-10-04T02:45:33.020Z,10.67
2022-10-04T02:46:33.000Z,10.68
2022-10-04T02:47:32.973Z,10.65
2022-10-04T02:48:32.992Z,10.68
2022-10-04T02:49:33.058Z,10.68
2022-10-04T02:50:32.919Z,10.69
2022-10-04T02:51:33.781Z,10.68
2022-10-04T02:52:32.901Z,10.69
2022-10-04T02:53:32.902Z,10.69
2022-10-04T02:54:32.880Z,10.69
2022-10-04T02:55:32.889Z,10.67
2022-10-04T02:56:32.862Z,10.68
2022-10-04T02:57:32.863Z,10.68
2022-10-04T02:58:32.849Z,10.68
2022-10-04T02:59:35.401Z,10.69
2022-10-04T03:00:32.812Z,10.69
2022-10-04T03:01:32.812Z,10.67
2022-10-04T03:02:32.887Z,10.67
2022-10-04T03:03:32.793Z,10.68
2022-10-04T03:04:32.785Z,10.67
2022-10-04T03:05:32.769Z,10.67
2022-10-04T03:06:32.761Z,10.65
2022-10-04T03:07:32.749Z,10.65
2022-10-04T03:08:32.738Z,10.67
2022-10-04T03:09:32.721Z,10.65
2022-10-04T03:10:32.731Z,10.67
2022-10-04T03:11:32.710Z,10.65
2022-10-04T03:12:32.691Z,10.65
2022-10-04T03:13:32.694Z,10.67
2022-10-04T03:14:32.722Z,10.65
2022-10-04T03:15:32.718Z,10.65
2022-10-04T03:16:32.741Z,10.65
2022-10-04T03:17:32.670Z,10.64
2022-10-04T03:18:32.638Z,10.64
2022-10-04T03:19:32.622Z,10.62
2022-10-04T03:20:32.610Z,10.64
2022-10-04T03:21:32.617Z,10.64
2022-10-04T03:22:32.579Z,10.64
2022-10-04T03:23:32.590Z,10.62
2022-10-04T03:24:32.579Z,10.61
2022-10-04T03:25:32.561Z,10.59
2022-10-04T03:26:32.559Z,10.61
2022-10-04T03:27:32.529Z,10.58
2022-10-04T03:28:32.574Z,10.58
2022-10-04T03:29:32.509Z,10.58
2022-10-04T03:30:32.579Z,10.55
2022-10-04T03:31:32.549Z,10.51
2022-10-04T03:32:32.489Z,10.51
2022-10-04T03:33:32.469Z,10.48
2022-10-04T03:34:32.470Z,10.48
2022-10-04T03:35:32.448Z,10.48
2022-10-04T03:36:32.490Z,10.48
2022-10-04T03:37:32.438Z,10.45
2022-10-04T03:38:32.428Z,10.46
2022-10-04T03:39:32.406Z,10.45
2022-10-04T03:40:32.399Z,10.45
2022-10-04T03:41:32.409Z,10.42
2022-10-04T03:42:32.402Z,10.43
2022-10-04T03:43:33.028Z,10.43
2022-10-04T03:44:32.412Z,10.41
2022-10-04T03:45:32.425Z,10.41
2022-10-04T03:46:32.339Z,10.39
2022-10-04T03:47:32.326Z,10.38
2022-10-04T03:48:33.080Z,10.38
2022-10-04T03:49:32.328Z,10.36
2022-10-04T03:50:32.328Z,10.33
2022-10-04T03:51:32.295Z,10.34
2022-10-04T03:52:32.288Z,10.30
2022-10-04T03:53:32.256Z,10.28
2022-10-04T03:54:32.256Z,10.28
2022-10-04T03:55:32.246Z,10.25
2022-10-04T03:56:32.247Z,10.24
2022-10-04T03:57:32.266Z,10.23
2022-10-04T03:58:32.224Z,10.23
2022-10-04T03:59:32.213Z,10.20
2022-10-04T04:00:32.858Z,10.20
2022-10-04T04:01:32.209Z,10.17
2022-10-04T04:02:32.214Z,10.17
2022-10-04T04:03:32.156Z,10.13
2022-10-04T04:04:32.149Z,10.13
2022-10-04T04:05:32.151Z,10.10
2022-10-04T04:06:32.137Z,10.07
2022-10-04T04:07:32.117Z,10.05
2022-10-04T04:08:32.110Z,10.05
2022-10-04T04:09:32.108Z,10.05
2022-10-04T04:10:32.106Z,10.05
2022-10-04T04:11:32.071Z,10.02
2022-10-04T04:12:32.078Z,10.02
2022-10-04T04:13:32.066Z,10.02
2022-10-04T04:14:32.174Z,10.00
2022-10-04T04:15:32.064Z,9.99
2022-10-04T04:16:32.294Z,9.97
2022-10-04T04:17:32.043Z,9.97
2022-10-04T04:18:32.049Z,9.95
2022-10-04T04:19:32.046Z,9.95
2022-10-04T04:20:32.004Z,9.94
2022-10-04T04:21:31.966Z,9.92
2022-10-04T04:22:32.006Z,9.91
2022-10-04T04:23:31.957Z,9.92
2022-10-04T04:24:31.958Z,9.92
2022-10-04T04:25:31.925Z,9.91
2022-10-04T04:26:31.927Z,9.90
2022-10-04T04:27:32.736Z,9.87
2022-10-04T04:28:31.933Z,9.88
2022-10-04T04:29:31.888Z,9.85
2022-10-04T04:30:31.875Z,9.85
2022-10-04T04:31:31.936Z,9.82
2022-10-04T04:32:31.854Z,9.84
2022-10-04T04:33:31.837Z,9.82
2022-10-04T04:34:31.924Z,9.81
2022-10-04T04:35:31.824Z,9.77
2022-10-04T04:36:31.813Z,9.80
2022-10-04T04:37:31.804Z,9.77
2022-10-04T04:38:31.803Z,9.77
2022-10-04T04:39:31.773Z,9.77
2022-10-04T04:40:31.767Z,9.76
2022-10-04T04:41:31.765Z,9.76
2022-10-04T04:42:31.794Z,9.74
2022-10-04T04:43:31.753Z,9.73
2022-10-04T04:44:31.723Z,9.74
2022-10-04T04:45:31.759Z,9.70
2022-10-04T04:46:31.846Z,9.72
2022-10-04T04:47:31.705Z,9.70
2022-10-04T04:48:31.686Z,9.70
2022-10-04T04:49:31.663Z,9.69
2022-10-04T04:50:31.654Z,9.66
2022-10-04T04:51:31.648Z,9.67
2022-10-04T04:52:31.634Z,9.66
2022-10-04T04:53:31.631Z,9.64
2022-10-04T04:54:31.614Z,9.64
2022-10-04T04:55:44.482Z,9.63
2022-10-04T04:56:32.616Z,9.62
2022-10-04T04:57:31.582Z,9.62
2022-10-04T04:58:31.593Z,9.62
2022-10-04T04:59:31.563Z,9.58
2022-10-04T05:00:31.554Z,9.59
2022-10-04T05:01:31.625Z,9.56
2022-10-04T05:02:31.563Z,9.58
2022-10-04T05:03:31.540Z,9.55
2022-10-04T05:04:31.514Z,9.56
2022-10-04T05:05:31.492Z,9.55
2022-10-04T05:06:31.504Z,9.55
2022-10-04T05:07:31.490Z,9.51
2022-10-04T05:08:31.503Z,9.54
2022-10-04T05:09:31.458Z,9.52
2022-10-04T05:10:31.443Z,9.52
2022-10-04T05:11:31.433Z,9.51
2022-10-04T05:12:31.422Z,9.52
2022-10-04T05:13:31.402Z,9.49
2022-10-04T05:14:31.405Z,9.54
2022-10-04T05:15:31.386Z,9.51
2022-10-04T05:16:31.583Z,9.49
2022-10-04T05:17:31.371Z,9.49
2022-10-04T05:18:31.414Z,9.49
2022-10-04T05:19:31.413Z,9.51
2022-10-04T05:20:31.374Z,9.51
2022-10-04T05:21:31.351Z,9.49
2022-10-04T05:22:31.332Z,9.51
2022-10-04T05:23:31.321Z,9.49
2022-10-04T05:24:31.311Z,9.49
2022-10-04T05:25:31.303Z,9.49
2022-10-04T05:26:31.282Z,9.49
2022-10-04T05:27:31.280Z,9.51
2022-10-04T05:28:31.305Z,9.52
2022-10-04T05:29:31.233Z,9.52
2022-10-04T05:30:31.304Z,9.52
2022-10-04T05:31:31.246Z,9.52
2022-10-04T05:32:31.596Z,9.52
2022-10-04T05:33:33.893Z,9.52
2022-10-04T05:34:31.401Z,9.52
2022-10-04T05:35:31.172Z,9.52
2022-10-04T05:36:31.161Z,9.52
2022-10-04T05:37:31.139Z,9.52
2022-10-04T05:38:32.092Z,9.52
2022-10-04T05:39:31.130Z,9.51
2022-10-04T05:40:31.200Z,9.52
2022-10-04T05:41:33.605Z,9.51
2022-10-04T05:42:31.112Z,9.51
2022-10-04T05:43:31.077Z,9.51
2022-10-04T05:44:31.120Z,9.51
2022-10-04T05:45:31.097Z,9.54
2022-10-04T05:46:31.054Z,9.52
2022-10-04T05:47:31.030Z,9.52
2022-10-04T05:48:31.671Z,9.54
2022-10-04T05:49:31.027Z,9.52
2022-10-04T05:50:31.008Z,9.52
2022-10-04T05:51:30.990Z,9.54
2022-10-04T05:52:31.006Z,9.56
2022-10-04T05:53:30.979Z,9.54
2022-10-04T05:54:30.965Z,9.58
2022-10-04T05:55:30.972Z,9.58
2022-10-04T05:56:30.949Z,9.58
2022-10-04T05:57:31.034Z,9.62
2022-10-04T05:58:30.937Z,9.59
2022-10-04T05:59:30.958Z,9.59
2022-10-04T06:00:30.898Z,9.62
2022-10-04T06:01:30.930Z,9.63
2022-10-04T06:02:30.946Z,9.64
2022-10-04T06:03:30.912Z,9.66
2022-10-04T06:04:30.868Z,9.69
2022-10-04T06:05:30.848Z,9.67
2022-10-04T06:06:30.978Z,9.72
2022-10-04T06:07:30.828Z,9.73
2022-10-04T06:08:30.817Z,9.76
2022-10-04T06:09:30.817Z,9.76
2022-10-04T06:10:30.827Z,9.76
2022-10-04T06:11:30.776Z,9.81
2022-10-04T06:12:30.771Z,9.84
2022-10-04T06:13:30.762Z,9.88
2022-10-04T06:14:30.771Z,9.90
2022-10-04T06:15:30.736Z,9.91
2022-10-04T06:16:30.759Z,9.94
2022-10-04T06:17:30.737Z,9.94
2022-10-04T06:18:30.727Z,9.95
2022-10-04T06:19:30.727Z,10.00
2022-10-04T06:20:30.699Z,10.03
2022-10-04T06:21:30.686Z,10.03
2022-10-04T06:22:30.688Z,10.05
2022-10-04T06:23:30.681Z,10.12
2022-10-04T06:24:30.745Z,10.13
2022-10-04T06:25:30.667Z,10.15
2022-10-04T06:26:30.626Z,10.17
2022-10-04T06:27:30.619Z,10.20
2022-10-04T06:28:30.643Z,10.25
2022-10-04T06:29:30.591Z,10.25
2022-10-04T06:30:30.603Z,10.30
2022-10-04T06:31:30.575Z,10.31
2022-10-04T06:32:30.557Z,10.39
2022-10-04T06:33:30.554Z,10.41
2022-10-04T06:34:30.547Z,10.45
2022-10-04T06:35:30.523Z,10.49
2022-10-04T06:36:30.509Z,10.53
2022-10-04T06:37:30.495Z,10.58
2022-10-04T06:38:30.503Z,10.62
2022-10-04T06:39:30.505Z,10.67
2022-10-04T06:40:30.476Z,10.69
2022-10-04T06:41:30.475Z,10.72
2022-10-04T06:42:30.517Z,10.76
2022-10-04T06:43:30.449Z,10.82
2022-10-04T06:44:30.445Z,10.86
2022-10-04T06:45:30.425Z,10.87
2022-10-04T06:46:30.468Z,10.95
2022-10-04T06:47:30.395Z,11.00
2022-10-04T06:48:30.392Z,11.05
2022-10-04T06:49:30.393Z,11.08
2022-10-04T06:50:30.399Z,11.15
2022-10-04T06:51:30.366Z,11.19
2022-10-04T06:52:30.350Z,11.22
2022-10-04T06:53:30.333Z,11.26
2022-10-04T06:54:30.325Z,11.33
2022-10-04T06:55:30.332Z,11.35
2022-10-04T06:56:30.354Z,11.40
2022-10-04T06:57:30.293Z,11.45
2022-10-04T06:58:30.286Z,11.48
2022-10-04T06:59:30.744Z,11.53
2022-10-04T07:00:30.263Z,11.59
2022-10-04T07:01:30.288Z,11.60
2022-10-04T07:02:30.325Z,11.67
2022-10-04T07:03:30.244Z,11.71
2022-10-04T07:04:41.101Z,11.74
2022-10-04T07:05:31.194Z,11.77
2022-10-04T07:06:31.015Z,11.83
2022-10-04T07:07:30.183Z,11.86
2022-10-04T07:08:30.174Z,11.93
2022-10-04T07:09:30.193Z,11.96
2022-10-04T07:10:30.154Z,12.00
2022-10-04T07:11:30.135Z,12.05
2022-10-04T07:12:30.143Z,12.10
2022-10-04T07:13:30.385Z,12.14
2022-10-04T07:14:30.144Z,12.18
2022-10-04T07:15:30.182Z,12.25
2022-10-04T07:16:30.179Z,12.32
2022-10-04T07:17:30.083Z,12.36
2022-10-04T07:18:30.051Z,12.40
2022-10-04T07:19:30.090Z,12.43
2022-10-04T07:20:30.043Z,12.47
2022-10-04T07:21:30.044Z,12.50
2022-10-04T07:22:30.260Z,12.54
2022-10-04T07:23:30.011Z,12.55
2022-10-04T07:24:30.004Z,12.65
2022-10-04T07:25:30.002Z,12.72
2022-10-04T07:26:29.982Z,12.78
2022-10-04T07:27:30.028Z,12.86
2022-10-04T07:28:30.045Z,12.88
2022-10-04T07:29:29.958Z,12.91
2022-10-04T07:30:29.932Z,12.99
2022-10-04T07:31:29.974Z,13.02
2022-10-04T07:32:29.941Z,13.05
2022-10-04T07:33:29.912Z,13.12
2022-10-04T07:34:29.891Z,13.13
2022-10-04T07:35:29.906Z,13.17
2022-10-04T07:36:29.871Z,13.21
2022-10-04T07:37:29.860Z,13.26
2022-10-04T07:38:29.850Z,13.31
2022-10-04T07:39:29.845Z,13.39
2022-10-04T07:40:29.839Z,13.46
2022-10-04T07:41:29.821Z,13.50
2022-10-04T07:42:29.810Z,13.55
2022-10-04T07:43:29.801Z,13.60
2022-10-04T07:44:29.937Z,13.62
2022-10-04T07:45:30.284Z,13.67
2022-10-04T07:46:29.800Z,13.67
2022-10-04T07:47:29.791Z,13.68
2022-10-04T07:48:29.745Z,13.68
2022-10-04T07:49:29.861Z,13.65
2022-10-04T07:50:29.721Z,13.70
2022-10-04T07:51:29.714Z,13.71
2022-10-04T07:52:29.812Z,13.78
2022-10-04T07:53:29.698Z,13.75
2022-10-04T07:54:29.670Z,13.79
2022-10-04T07:55:29.685Z,13.79
2022-10-04T07:56:29.661Z,13.82
2022-10-04T07:57:29.658Z,13.80
2022-10-04T07:58:29.655Z,13.82
2022-10-04T07:59:29.637Z,13.82
2022-10-04T08:00:29.612Z,13.79
2022-10-04T08:01:29.640Z,13.80
2022-10-04T08:02:31.324Z,13.82
2022-10-04T08:03:29.643Z,13.86
2022-10-04T08:04:29.580Z,13.85
2022-10-04T08:05:29.570Z,13.82
2022-10-04T08:06:29.568Z,13.80
2022-10-04T08:07:29.633Z,13.82
2022-10-04T08:08:29.555Z,13.80
2022-10-04T08:09:29.525Z,13.80
2022-10-04T08:10:29.517Z,13.83
2022-10-04T08:11:29.548Z,13.82
2022-10-04T08:12:29.499Z,13.82
2022-10-04T08:13:29.500Z,13.79
2022-10-04T08:14:29.590Z,13.78
2022-10-04T08:15:29.603Z,13.78
2022-10-04T08:16:29.449Z,13.79
2022-10-04T08:17:29.428Z,13.79
2022-10-04T08:18:29.411Z,13.78
2022-10-04T08:19:29.415Z,13.75
2022-10-04T08:20:29.381Z,13.80
2022-10-04T08:21:29.382Z,13.86
2022-10-04T08:22:29.361Z,13.95
2022-10-04T08:23:29.368Z,14.05
2022-10-04T08:24:29.351Z,14.13
2022-10-04T08:25:29.339Z,14.22
2022-10-04T08:26:29.309Z,14.28
2022-10-04T08:27:29.309Z,14.34
2022-10-04T08:28:29.361Z,14.41
2022-10-04T08:29:29.309Z,14.44
2022-10-04T08:30:29.270Z,14.52
2022-10-04T08:31:29.357Z,14.58
2022-10-04T08:32:29.261Z,14.63
2022-10-04T08:33:29.256Z,14.61
2022-10-04T08:34:29.255Z,14.49
2022-10-04T08:35:29.229Z,14.43
2022-10-04T08:36:29.209Z,14.34
2022-10-04T08:37:29.212Z,14.22
2022-10-04T08:38:29.193Z,14.16
2022-10-04T08:39:29.239Z,14.23
2022-10-04T08:40:29.403Z,14.30
2022-10-04T08:41:29.175Z,14.37
2022-10-04T08:42:30.041Z,14.40
2022-10-04T08:43:29.157Z,14.43
2022-10-04T08:44:29.140Z,14.49
2022-10-04T08:45:29.125Z,14.58
2022-10-04T08:46:29.159Z,14.68
2022-10-04T08:47:29.157Z,14.73
2022-10-04T08:48:29.085Z,14.85
2022-10-04T08:49:29.877Z,14.90
2022-10-04T08:50:29.058Z,14.96
2022-10-04T08:51:29.056Z,14.99
2022-10-04T08:52:29.115Z,15.05
2022-10-04T08:53:29.040Z,15.12
2022-10-04T08:54:29.024Z,15.19
2022-10-04T08:55:29.009Z,15.23
2022-10-04T08:56:28.998Z,15.32
2022-10-04T08:57:29.009Z,15.37
2022-10-04T08:58:28.986Z,15.45
2022-10-04T08:59:29.058Z,15.52
2022-10-04T09:00:28.974Z,15.62
2022-10-04T09:01:29.002Z,15.69
2022-10-04T09:02:28.965Z,15.76
2022-10-04T09:03:29.968Z,15.85
2022-10-04T09:04:28.908Z,15.88
2022-10-04T09:05:28.898Z,15.92
2022-10-04T09:06:28.888Z,15.96
2022-10-04T09:07:28.888Z,16.02
2022-10-04T09:08:28.866Z,16.06
2022-10-04T09:09:28.875Z,16.13
2022-10-04T09:10:28.847Z,16.21
2022-10-04T09:11:28.833Z,16.22
2022-10-04T09:12:28.819Z,16.31
2022-10-04T09:13:28.809Z,16.39
2022-10-04T09:14:28.858Z,16.46
2022-10-04T09:15:28.882Z,16.47
2022-10-04T09:16:28.778Z,16.49
2022-10-04T09:17:28.778Z,16.57
2022-10-04T09:18:28.759Z,16.65
2022-10-04T09:19:28.750Z,16.76
2022-10-04T09:20:40.242Z,16.84
2022-10-04T09:21:29.737Z,16.92
2022-10-04T09:22:28.720Z,16.97
2022-10-04T09:23:28.728Z,16.86
2022-10-04T09:24:28.688Z,16.83
2022-10-04T09:25:28.720Z,16.94
2022-10-04T09:26:28.708Z,17.05
2022-10-04T09:27:53.674Z,17.14
2022-10-04T09:28:29.731Z,17.19
2022-10-04T09:29:28.701Z,17.31
2022-10-04T09:30:28.709Z,17.46
2022-10-04T09:31:28.705Z,17.52
2022-10-04T09:32:28.962Z,17.66
2022-10-04T09:33:28.618Z,17.73
2022-10-04T09:34:28.618Z,17.88
2022-10-04T09:35:28.655Z,18.02
2022-10-04T09:36:28.620Z,18.15
2022-10-04T09:37:28.580Z,18.27
2022-10-04T09:38:28.569Z,18.45
2022-10-04T09:39:30.922Z,18.63
2022-10-04T09:40:28.518Z,18.83
2022-10-04T09:41:28.508Z,18.98
2022-10-04T09:42:28.498Z,19.20
2022-10-04T09:43:28.530Z,19.30
2022-10-04T09:44:28.478Z,19.42
2022-10-04T09:45:28.478Z,19.62
2022-10-04T09:46:28.551Z,19.70
2022-10-04T09:47:28.449Z,19.79
2022-10-04T09:48:28.428Z,19.96
2022-10-04T09:49:28.468Z,19.97
2022-10-04T09:50:28.428Z,20.10
2022-10-04T09:51:28.448Z,20.11
2022-10-04T09:52:28.419Z,20.08
2022-10-04T09:53:28.430Z,20.08
2022-10-04T09:54:28.378Z,20.03
2022-10-04T09:55:28.378Z,19.84
2022-10-04T09:56:28.396Z,19.60
2022-10-04T09:57:28.360Z,19.41
2022-10-04T09:58:28.358Z,19.24
2022-10-04T09:59:28.358Z,19.05
2022-10-04T10:00:28.348Z,18.91
2022-10-04T10:01:28.401Z,18.76
2022-10-04T10:02:28.497Z,18.61
2022-10-04T10:03:28.290Z,18.55
2022-10-04T10:04:28.273Z,18.46
2022-10-04T10:05:28.311Z,18.34
2022-10-04T10:06:28.249Z,18.30
2022-10-04T10:07:28.291Z,18.23
2022-10-04T10:08:28.570Z,18.19
2022-10-04T10:09:28.215Z,18.18
2022-10-04T10:10:28.219Z,18.06
2022-10-04T10:11:28.191Z,18.03
2022-10-04T10:12:28.198Z,18.02
2022-10-04T10:13:31.907Z,18.03
2022-10-04T10:14:29.051Z,18.03
2022-10-04T10:15:28.129Z,18.08
2022-10-04T10:16:28.232Z,18.11
2022-10-04T10:17:28.139Z,18.15
2022-10-04T10:18:28.109Z,18.21
2022-10-04T10:19:28.402Z,18.23
2022-10-04T10:20:28.090Z,18.28
2022-10-04T10:21:28.970Z,18.31
2022-10-04T10:22:28.267Z,18.36
2022-10-04T10:23:28.061Z,18.36
2022-10-04T10:24:28.049Z,18.39
2022-10-04T10:25:28.030Z,18.46
2022-10-04T10:26:28.037Z,18.49
2022-10-04T10:27:28.042Z,18.55
2022-10-04T10:28:28.041Z,18.64
2022-10-04T10:29:27.979Z,18.70
2022-10-04T10:30:28.364Z,18.81
2022-10-04T10:31:28.169Z,18.89
2022-10-04T10:32:27.980Z,19.00
2022-10-04T10:33:27.978Z,19.08
2022-10-04T10:34:27.932Z,19.19
2022-10-04T10:35:27.919Z,19.26
2022-10-04T10:36:27.919Z,19.34
2022-10-04T10:37:27.942Z,19.41
2022-10-04T10:38:27.895Z,19.49
2022-10-04T10:39:27.881Z,19.57
2022-10-04T10:40:27.879Z,19.64
2022-10-04T10:41:27.850Z,19.78
2022-10-04T10:42:27.859Z,19.85
2022-10-04T10:43:27.873Z,19.94
2022-10-04T10:44:27.861Z,20.08
2022-10-04T10:45:27.886Z,20.18
2022-10-04T10:46:27.895Z,20.27
2022-10-04T10:47:27.855Z,20.36
2022-10-04T10:48:27.780Z,20.55
2022-10-04T10:49:27.761Z,20.58
2022-10-04T10:50:27.760Z,20.60
2022-10-04T10:51:27.888Z,20.73
2022-10-04T10:52:27.749Z,20.85
2022-10-04T10:53:27.740Z,20.86
2022-10-04T10:54:27.718Z,21.04
2022-10-04T10:55:27.702Z,21.17
2022-10-04T10:56:30.190Z,21.33
2022-10-04T10:57:27.702Z,21.47
2022-10-04T10:58:27.719Z,21.53
2022-10-04T10:59:27.782Z,21.63
2022-10-04T11:00:27.650Z,21.70
2022-10-04T11:01:27.749Z,21.77
2022-10-04T11:02:47.807Z,21.94
2022-10-04T11:03:32.088Z,22.06
2022-10-04T11:04:27.705Z,22.19
2022-10-04T11:05:27.592Z,22.30
2022-10-04T11:06:27.588Z,22.43
2022-10-04T11:07:27.582Z,22.65
2022-10-04T11:08:27.613Z,22.80
2022-10-04T11:09:27.572Z,23.07
2022-10-04T11:10:27.579Z,23.37
2022-10-04T11:11:27.582Z,23.79
2022-10-04T11:12:27.542Z,24.21
2022-10-04T11:13:27.543Z,24.26
2022-10-04T11:14:27.544Z,24.13
2022-10-04T11:15:27.515Z,24.22
2022-10-04T11:16:27.580Z,24.19
2022-10-04T11:17:27.534Z,23.71
2022-10-04T11:18:27.483Z,23.48
2022-10-04T11:19:27.456Z,23.70
2022-10-04T11:20:27.482Z,24.56
2022-10-04T11:21:27.422Z,25.16
2022-10-04T11:22:27.423Z,25.51
2022-10-04T11:23:27.414Z,25.99
2022-10-04T11:24:27.414Z,26.42
2022-10-04T11:25:27.387Z,26.78
2022-10-04T11:26:27.378Z,27.01
2022-10-04T11:27:27.354Z,27.16
2022-10-04T11:28:27.420Z,27.38
2022-10-04T11:29:27.338Z,27.63
2022-10-04T11:30:27.332Z,27.76
2022-10-04T11:31:27.435Z,27.88
2022-10-04T11:32:27.305Z,27.98
2022-10-04T11:33:27.343Z,28.09
2022-10-04T11:34:27.284Z,28.18
2022-10-04T11:35:27.292Z,28.20
2022-10-04T11:36:27.273Z,28.33
2022-10-04T11:37:27.259Z,28.34
2022-10-04T11:38:27.246Z,28.25
2022-10-04T11:39:27.248Z,28.15
2022-10-04T11:40:27.224Z,28.25
2022-10-04T11:41:27.204Z,28.18
2022-10-04T11:42:27.201Z,28.30
2022-10-04T11:43:27.198Z,28.47
2022-10-04T11:44:27.185Z,28.56
2022-10-04T11:45:27.166Z,28.55
2022-10-04T11:46:27.232Z,28.62
2022-10-04T11:47:27.148Z,28.53
2022-10-04T11:48:27.133Z,28.59
2022-10-04T11:49:27.144Z,28.65
2022-10-04T11:50:27.118Z,28.75
2022-10-04T11:51:27.097Z,28.67
2022-10-04T11:52:27.129Z,28.67
2022-10-04T11:53:27.085Z,28.92
2022-10-04T11:54:27.068Z,29.20
2022-10-04T11:55:27.070Z,29.35
2022-10-04T11:56:27.099Z,29.40
2022-10-04T11:57:27.038Z,29.59
2022-10-04T11:58:27.111Z,30.01
2022-10-04T11:59:27.016Z,30.40
2022-10-04T12:00:27.008Z,30.83
2022-10-04T12:01:27.028Z,31.18
2022-10-04T12:02:26.992Z,31.35
2022-10-04T12:03:27.039Z,31.54
2022-10-04T12:04:27.033Z,31.78
2022-10-04T12:05:26.964Z,31.85
2022-10-04T12:06:26.958Z,31.81
2022-10-04T12:07:26.937Z,31.74
2022-10-04T12:08:26.979Z,31.93
2022-10-04T12:09:26.970Z,32.04
2022-10-04T12:10:26.916Z,32.41
2022-10-04T12:11:26.921Z,32.66
2022-10-04T12:12:26.930Z,32.86
2022-10-04T12:13:26.900Z,32.86
2022-10-04T12:14:26.882Z,32.95
2022-10-04T12:15:26.863Z,33.12
2022-10-04T12:16:26.933Z,33.08
2022-10-04T12:17:26.832Z,33.19
2022-10-04T12:18:26.834Z,33.42
2022-10-04T12:19:26.811Z,33.57
2022-10-04T12:20:26.792Z,33.66
2022-10-04T12:21:26.794Z,33.63
2022-10-04T12:22:26.872Z,33.72
2022-10-04T12:23:26.782Z,33.81
2022-10-04T12:24:26.765Z,34.09
2022-10-04T12:25:26.744Z,34.25
2022-10-04T12:26:26.743Z,34.04
2022-10-04T12:27:26.743Z,33.88
2022-10-04T12:28:26.751Z,34.02
2022-10-04T12:29:26.711Z,34.13
2022-10-04T12:30:26.705Z,33.95
2022-10-04T12:31:26.733Z,33.82
2022-10-04T12:32:26.674Z,33.57
2022-10-04T12:33:26.707Z,33.47
2022-10-04T12:34:26.663Z,33.60
2022-10-04T12:35:26.671Z,33.47
2022-10-04T12:36:27.175Z,33.53
2022-10-04T12:37:26.623Z,33.84
2022-10-04T12:38:26.685Z,34.29
2022-10-04T12:39:26.608Z,34.75
2022-10-04T12:40:26.603Z,34.86
2022-10-04T12:41:26.615Z,34.86
2022-10-04T12:42:31.607Z,35.03
2022-10-04T12:43:27.576Z,35.16
2022-10-04T12:44:26.548Z,35.18
2022-10-04T12:45:26.636Z,35.18
2022-10-04T12:46:26.533Z,34.89
2022-10-04T12:47:26.535Z,34.31
2022-10-04T12:48:26.518Z,34.48
2022-10-04T12:49:26.487Z,34.81
2022-10-04T12:50:26.488Z,34.96
2022-10-04T12:51:26.545Z,34.69
2022-10-04T12:52:26.464Z,35.00
2022-10-04T12:53:26.459Z,34.97
2022-10-04T12:54:26.450Z,34.71
2022-10-04T12:55:26.434Z,34.86
2022-10-04T12:56:26.430Z,35.00